createdAt,value
2022-10-08T00:00:46.219Z,81.61
2022-10-08T00:03:52.474Z,81.88
2022-10-08T00:06:54.301Z,81.72
2022-10-08T00:09:56.108Z,81.98
2022-10-08T00:12:57.823Z,82.06
2022-10-08T00:15:59.686Z,82.34
2022-10-08T00:19:07.338Z,82.49
2022-10-08T00:22:09.095Z,82.49
2022-10-08T00:25:10.856Z,82.59
2022-10-08T00:28:13.999Z,82.66
2022-10-08T00:31:19.116Z,82.71
2022-10-08T00:34:23.517Z,83.17
2022-10-08T00:37:26.785Z,83.24
2022-10-08T00:40:28.583Z,83.00
2022-10-08T00:43:45.253Z,82.97
2022-10-08T00:46:49.593Z,82.90
2022-10-08T00:49:56.078Z,82.85
2022-10-08T00:53:02.047Z,82.96
2022-10-08T00:56:04.335Z,83.04
2022-10-08T00:59:08.214Z,83.08
2022-10-08T01:02:10.954Z,82.94
2022-10-08T01:05:16.225Z,82.99
2022-10-08T01:08:55.908Z,82.69
2022-10-08T01:12:10.253Z,82.70
2022-10-08T01:15:18.006Z,82.44
2022-10-08T01:18:34.822Z,82.30
2022-10-08T01:22:29.704Z,82.06
2022-10-08T01:25:37.734Z,81.92
2022-10-08T01:28:48.811Z,81.95
2022-10-08T01:31:55.115Z,81.81
2022-10-08T01:35:03.871Z,81.80
2022-10-08T01:38:08.680Z,81.68
2022-10-08T01:41:13.564Z,81.81
2022-10-08T01:44:23.327Z,81.72
2022-10-08T01:47:29.002Z,81.82
2022-10-08T01:50:38.562Z,81.56
2022-10-08T01:53:45.909Z,81.64
2022-10-08T01:56:49.464Z,81.83
2022-10-08T02:00:00.126Z,81.91
2022-10-08T02:03:02.195Z,82.12
2022-10-08T02:06:07.024Z,82.32
2022-10-08T02:09:10.281Z,82.13
2022-10-08T02:12:13.093Z,82.23
2022-10-08T02:15:20.491Z,81.90
2022-10-08T02:18:45.289Z,81.89
2022-10-08T02:21:48.102Z,81.90
2022-10-08T02:25:04.639Z,82.63
2022-10-08T02:28:10.737Z,82.45
2022-10-08T02:31:31.091Z,82.47
2022-10-08T02:34:41.415Z,82.38
2022-10-08T02:37:54.861Z,82.38
2022-10-08T02:40:59.887Z,82.56
2022-10-08T02:44:07.140Z,82.43
2022-10-08T02:47:13.789Z,82.34
2022-10-08T02:50:20.575Z,81.93
2022-10-08T02:53:25.327Z,82.26
2022-10-08T02:56:34.708Z,82.25
2022-10-08T02:59:37.367Z,82.25
2022-10-08T03:03:08.687Z,82.51
2022-10-08T03:06:12.512Z,82.88
2022-10-08T03:09:17.325Z,82.40
2022-10-08T03:12:19.921Z,82.17
2022-10-08T03:15:21.886Z,82.42
2022-10-08T03:18:25.427Z,82.46
2022-10-08T03:21:28.265Z,82.14
2022-10-08T03:24:30.129Z,81.69
2022-10-08T03:27:31.822Z,81.65
2022-10-08T03:30:33.680Z,81.59
2022-10-08T03:33:35.476Z,81.53
2022-10-08T03:36:37.225Z,81.38
2022-10-08T03:39:38.984Z,81.29
2022-10-08T03:42:40.752Z,81.56
2022-10-08T03:45:51.817Z,81.53
2022-10-08T03:48:53.693Z,81.54
2022-10-08T03:51:55.482Z,81.34
2022-10-08T03:54:57.403Z,81.61
2022-10-08T03:57:59.215Z,81.36
2022-10-08T04:01:12.893Z,81.48
2022-10-08T04:04:14.690Z,81.92
2022-10-08T04:07:16.498Z,82.47
2022-10-08T04:10:18.264Z,82.79
2022-10-08T04:13:20.015Z,82.91
2022-10-08T04:16:21.765Z,83.47
2022-10-08T04:19:23.586Z,84.08
2022-10-08T04:22:25.347Z,84.36
2022-10-08T04:25:27.228Z,84.18
2022-10-08T04:28:29.468Z,84.28
2022-10-08T04:31:31.342Z,84.49
2022-10-08T04:34:33.139Z,84.63
2022-10-08T04:37:35.527Z,84.95
2022-10-08T04:40:37.317Z,85.11
2022-10-08T04:43:40.488Z,84.73
2022-10-08T04:46:42.425Z,84.75
2022-10-08T04:49:44.393Z,85.03
2022-10-08T04:52:46.447Z,84.83
2022-10-08T04:55:48.384Z,84.55
2022-10-08T04:58:50.534Z,84.54
2022-10-08T05:01:56.755Z,84.43
2022-10-08T05:04:58.718Z,84.33
2022-10-08T05:08:00.515Z,84.32
2022-10-08T05:11:02.336Z,84.35
2022-10-08T05:14:04.327Z,84.24
2022-10-08T05:17:06.162Z,84.17
2022-10-08T05:20:08.207Z,83.88
2022-10-08T05:23:10.130Z,83.53
2022-10-08T05:26:12.069Z,83.27
2022-10-08T05:29:13.835Z,83.07
2022-10-08T05:32:15.632Z,82.68
2022-10-08T05:35:17.502Z,82.01
2022-10-08T05:38:19.304Z,82.07
2022-10-08T05:41:26.435Z,81.53
2022-10-08T05:44:28.173Z,81.36
2022-10-08T05:47:29.988Z,81.00
2022-10-08T05:50:31.778Z,80.81
2022-10-08T05:53:37.867Z,80.47
2022-10-08T05:56:39.626Z,79.69
2022-10-08T05:59:41.347Z,78.92
2022-10-08T06:02:43.190Z,78.19
2022-10-08T06:05:44.960Z,77.66
2022-10-08T06:08:47.223Z,76.89
2022-10-08T06:11:49.524Z,76.24
2022-10-08T06:14:51.329Z,75.90
2022-10-08T06:17:53.059Z,75.34
2022-10-08T06:20:54.888Z,74.48
2022-10-08T06:24:02.080Z,73.71
2022-10-08T06:27:03.978Z,73.06
2022-10-08T06:30:06.242Z,72.67
2022-10-08T06:33:09.177Z,72.47
2022-10-08T06:36:16.046Z,71.63
2022-10-08T06:39:18.473Z,70.70
2022-10-08T06:42:20.291Z,70.37
2022-10-08T06:45:22.086Z,69.84
2022-10-08T06:48:23.820Z,69.24
2022-10-08T06:51:25.588Z,68.60
2022-10-08T06:54:27.515Z,67.93
2022-10-08T06:57:29.321Z,67.25
2022-10-08T07:00:32.886Z,66.42
2022-10-08T07:03:35.781Z,66.10
2022-10-08T07:06:37.480Z,64.62
2022-10-08T07:09:39.341Z,64.91
2022-10-08T07:12:41.114Z,63.88
2022-10-08T07:15:42.874Z,63.15
2022-10-08T07:18:45.768Z,62.71
2022-10-08T07:21:47.517Z,62.33
2022-10-08T07:24:49.406Z,61.64
2022-10-08T07:27:51.351Z,61.05
2022-10-08T07:30:53.131Z,60.33
2022-10-08T07:34:05.638Z,60.22
2022-10-08T07:37:07.385Z,58.97
2022-10-08T07:40:09.738Z,58.51
2022-10-08T07:43:11.562Z,57.49
2022-10-08T07:46:14.396Z,57.66
2022-10-08T07:49:18.308Z,57.52
2022-10-08T07:52:22.626Z,56.69
2022-10-08T07:55:24.379Z,56.49
2022-10-08T07:58:26.237Z,55.01
2022-10-08T08:01:30.057Z,55.05
2022-10-08T08:04:32.266Z,54.07
2022-10-08T08:07:34.018Z,54.19
2022-10-08T08:10:35.832Z,52.05
2022-10-08T08:13:39.740Z,52.01
2022-10-08T08:16:41.482Z,51.40
2022-10-08T08:19:43.359Z,50.52
2022-10-08T08:22:45.414Z,50.38
2022-10-08T08:25:47.432Z,50.72
2022-10-08T08:28:58.019Z,48.94
2022-10-08T08:31:59.865Z,48.97
2022-10-08T08:35:01.756Z,48.28
2022-10-08T08:38:03.616Z,46.41
2022-10-08T08:41:25.737Z,47.24
2022-10-08T08:44:36.555Z,46.96
2022-10-08T08:47:55.081Z,46.65
2022-10-08T08:50:58.830Z,46.38
2022-10-08T08:54:00.641Z,45.44
2022-10-08T08:57:16.565Z,41.73
2022-10-08T09:00:22.323Z,43.08
2022-10-08T09:03:34.761Z,43.48
2022-10-08T09:06:39.644Z,44.13
2022-10-08T09:09:47.376Z,42.28
2022-10-08T09:12:52.614Z,43.14
2022-10-08T09:15:55.511Z,41.74
2022-10-08T09:18:57.278Z,41.89
2022-10-08T09:22:01.419Z,42.37
2022-10-08T09:25:11.017Z,41.96
2022-10-08T09:28:50.898Z,39.94
2022-10-08T09:31:52.783Z,40.87
2022-10-08T09:34:56.000Z,40.00
2022-10-08T09:38:02.081Z,40.89
2022-10-08T09:41:18.026Z,41.33
2022-10-08T09:44:21.854Z,42.44
2022-10-08T09:47:25.265Z,42.27
2022-10-08T09:50:27.073Z,42.34
2022-10-08T09:53:46.713Z,41.43
2022-10-08T09:56:54.628Z,41.85
2022-10-08T10:00:02.250Z,41.94
2022-10-08T10:03:15.311Z,42.46
2022-10-08T10:06:30.074Z,42.85
2022-10-08T10:09:46.930Z,43.32
2022-10-08T10:12:57.713Z,43.98
2022-10-08T10:16:04.284Z,44.55
2022-10-08T10:19:32.417Z,44.88
2022-10-08T10:22:46.393Z,45.81
2022-10-08T10:25:50.776Z,44.63
2022-10-08T10:28:57.370Z,44.05
2022-10-08T10:32:06.631Z,44.19
2022-10-08T10:35:24.656Z,43.10
2022-10-08T10:38:29.301Z,42.92
2022-10-08T10:41:37.623Z,43.25
2022-10-08T10:44:51.503Z,43.47
2022-10-08T10:47:54.547Z,44.00
2022-10-08T10:51:44.536Z,42.31
2022-10-08T10:55:08.323Z,41.60
2022-10-08T10:58:32.257Z,40.66
2022-10-08T11:01:44.450Z,41.04
2022-10-08T11:05:01.381Z,41.58
2022-10-08T11:08:20.913Z,40.11
2022-10-08T11:11:35.407Z,40.33
2022-10-08T11:14:50.142Z,40.04
2022-10-08T11:18:12.683Z,40.73
2022-10-08T11:21:20.246Z,40.24
2022-10-08T11:24:30.929Z,39.96
2022-10-08T11:27:44.705Z,40.07
2022-10-08T11:31:10.152Z,39.34
2022-10-08T11:34:26.909Z,40.28
2022-10-08T11:37:37.934Z,39.94
2022-10-08T11:41:11.137Z,40.39
2022-10-08T11:44:13.902Z,40.64
2022-10-08T11:47:35.455Z,42.41
2022-10-08T11:50:37.807Z,40.67
2022-10-08T11:53:39.464Z,40.41
2022-10-08T11:56:51.721Z,41.14
2022-10-08T11:59:53.381Z,41.73
2022-10-08T12:02:55.847Z,41.36
2022-10-08T12:06:19.923Z,41.51
2022-10-08T12:09:24.054Z,41.69
2022-10-08T12:12:26.005Z,41.64
2022-10-08T12:15:27.769Z,40.93
2022-10-08T12:18:32.204Z,41.11
2022-10-08T12:21:35.081Z,41.62
2022-10-08T12:24:39.631Z,42.35
2022-10-08T12:27:41.484Z,42.14
2022-10-08T12:30:50.267Z,39.69
2022-10-08T12:34:19.335Z,41.84
2022-10-08T12:37:51.770Z,41.45
2022-10-08T12:41:06.437Z,41.62
2022-10-08T12:44:24.135Z,42.11
2022-10-08T12:47:28.691Z,42.37
2022-10-08T12:50:48.449Z,42.50
2022-10-08T12:53:50.289Z,42.86
2022-10-08T12:56:52.809Z,43.35
2022-10-08T12:59:56.296Z,43.77
2022-10-08T13:02:59.484Z,44.29
2022-10-08T13:06:34.079Z,44.80
2022-10-08T13:09:36.573Z,45.00
2022-10-08T13:12:38.454Z,45.65
2022-10-08T13:15:40.243Z,45.61
2022-10-08T13:18:53.777Z,45.82
2022-10-08T13:22:01.706Z,45.61
2022-10-08T13:25:04.380Z,45.79
2022-10-08T13:28:09.295Z,45.86
2022-10-08T13:31:23.733Z,46.11
2022-10-08T13:34:40.946Z,45.84
2022-10-08T13:37:42.837Z,46.50
2022-10-08T13:40:51.003Z,46.61
2022-10-08T13:43:52.913Z,47.01
2022-10-08T13:46:58.944Z,47.11
2022-10-08T13:50:03.371Z,47.30
2022-10-08T13:53:05.299Z,47.66
2022-10-08T13:56:08.142Z,47.71
2022-10-08T13:59:10.931Z,47.73
2022-10-08T14:02:14.119Z,48.38
2022-10-08T14:05:16.026Z,48.61
2022-10-08T14:08:29.638Z,49.01
2022-10-08T14:11:31.650Z,48.87
2022-10-08T14:14:33.525Z,49.14
2022-10-08T14:17:35.409Z,49.45
2022-10-08T14:20:37.738Z,49.81
2022-10-08T14:23:39.474Z,50.12
2022-10-08T14:26:41.454Z,50.86
2022-10-08T14:29:43.564Z,51.53
2022-10-08T14:32:45.700Z,52.10
2022-10-08T14:35:52.282Z,52.66
2022-10-08T14:38:54.001Z,52.69
2022-10-08T14:41:55.928Z,52.78
2022-10-08T14:44:57.823Z,52.90
2022-10-08T14:47:59.771Z,53.13
2022-10-08T14:51:03.120Z,53.75
2022-10-08T14:54:06.723Z,53.93
2022-10-08T14:57:08.520Z,54.61
2022-10-08T15:00:11.118Z,55.38
2022-10-08T15:03:12.816Z,56.35
2022-10-08T15:06:16.904Z,56.67
2022-10-08T15:09:18.746Z,56.94
2022-10-08T15:12:20.587Z,57.18
2022-10-08T15:15:22.330Z,58.04
2022-10-08T15:18:24.384Z,58.11
2022-10-08T15:21:26.271Z,58.75
2022-10-08T15:24:29.252Z,58.69
2022-10-08T15:27:32.868Z,59.56
2022-10-08T15:30:34.727Z,59.53
2022-10-08T15:33:47.182Z,59.58
2022-10-08T15:36:49.745Z,59.82
2022-10-08T15:39:51.858Z,60.58
2022-10-08T15:42:53.573Z,60.81
2022-10-08T15:45:55.340Z,60.79
2022-10-08T15:48:57.638Z,61.06
2022-10-08T15:51:59.853Z,60.97
2022-10-08T15:55:02.700Z,61.10
2022-10-08T15:58:04.462Z,61.13
2022-10-08T16:01:12.323Z,61.92
2022-10-08T16:04:14.769Z,61.90
2022-10-08T16:07:16.893Z,62.12
2022-10-08T16:10:18.821Z,62.58
2022-10-08T16:13:20.656Z,62.18
2022-10-08T16:16:23.227Z,62.62
2022-10-08T16:19:27.019Z,63.39
2022-10-08T16:22:28.785Z,63.21
2022-10-08T16:25:30.589Z,63.61
2022-10-08T16:28:36.476Z,63.94
2022-10-08T16:31:39.853Z,63.94
2022-10-08T16:34:44.875Z,64.08
2022-10-08T16:37:47.222Z,64.72
2022-10-08T16:40:49.094Z,64.77
2022-10-08T16:43:52.178Z,65.11
2022-10-08T16:46:54.068Z,65.65
2022-10-08T16:49:55.927Z,65.27
2022-10-08T16:52:57.705Z,65.49
2022-10-08T16:56:04.717Z,65.68
2022-10-08T16:59:09.919Z,65.92
2022-10-08T17:02:11.835Z,65.99
2022-10-08T17:05:13.786Z,66.25
2022-10-08T17:08:15.670Z,66.91
2022-10-08T17:11:18.530Z,66.97
2022-10-08T17:14:20.483Z,67.97
2022-10-08T17:17:22.229Z,67.54
2022-10-08T17:20:24.429Z,67.89
2022-10-08T17:23:27.982Z,68.19
2022-10-08T17:26:31.085Z,68.22
2022-10-08T17:29:33.000Z,68.58
2022-10-08T17:32:34.752Z,69.03
2022-10-08T17:35:36.489Z,69.31
2022-10-08T17:38:40.089Z,69.52
2022-10-08T17:41:43.434Z,69.47
2022-10-08T17:44:45.248Z,69.59
2022-10-08T17:47:47.026Z,69.77
2022-10-08T17:50:49.863Z,69.96
2022-10-08T17:53:53.183Z,71.31
2022-10-08T17:56:54.898Z,71.03
2022-10-08T17:59:56.614Z,71.81
2022-10-08T18:02:58.341Z,71.88
2022-10-08T18:06:00.097Z,72.09
2022-10-08T18:09:03.310Z,71.99
2022-10-08T18:12:05.009Z,72.32
2022-10-08T18:15:06.850Z,72.09
2022-10-08T18:18:08.554Z,72.41
2022-10-08T18:21:11.093Z,72.44
2022-10-08T18:24:12.979Z,72.33
2022-10-08T18:27:14.630Z,72.71
2022-10-08T18:30:16.352Z,72.94
2022-10-08T18:33:20.646Z,72.94
2022-10-08T18:36:28.747Z,72.93
2022-10-08T18:39:30.501Z,73.12
2022-10-08T18:42:32.398Z,73.09
2022-10-08T18:45:35.757Z,73.58
2022-10-08T18:48:37.893Z,73.96
2022-10-08T18:51:39.720Z,73.85
2022-10-08T18:54:41.386Z,74.11
2022-10-08T18:57:43.022Z,74.52
2022-10-08T19:00:46.456Z,75.17
2022-10-08T19:03:49.233Z,75.07
2022-10-08T19:06:53.047Z,74.86
2022-10-08T19:09:55.580Z,75.06
2022-10-08T19:12:57.256Z,75.27
2022-10-08T19:16:02.373Z,75.36
2022-10-08T19:19:05.547Z,75.20
2022-10-08T19:22:07.260Z,75.62
2022-10-08T19:25:08.955Z,76.13
2022-10-08T19:28:11.130Z,76.10
2022-10-08T19:31:17.158Z,76.28
2022-10-08T19:34:21.906Z,76.62
2022-10-08T19:37:23.531Z,76.56
2022-10-08T19:40:25.181Z,76.82
2022-10-08T19:43:26.907Z,76.90
2022-10-08T19:46:28.747Z,77.13
2022-10-08T19:49:33.560Z,77.26
2022-10-08T19:52:35.196Z,77.44
2022-10-08T19:55:38.229Z,77.35
2022-10-08T19:58:46.262Z,77.65
2022-10-08T20:01:50.146Z,77.82
2022-10-08T20:04:51.952Z,77.77
2022-10-08T20:07:53.568Z,77.81
2022-10-08T20:10:55.334Z,77.56
2022-10-08T20:13:57.492Z,76.83
2022-10-08T20:16:59.148Z,77.01
2022-10-08T20:20:15.220Z,77.54
2022-10-08T20:23:22.612Z,77.75
2022-10-08T20:26:25.972Z,78.01
2022-10-08T20:29:30.976Z,77.45
2022-10-08T20:32:32.974Z,77.38
2022-10-08T20:35:37.398Z,77.28
2022-10-08T20:38:39.309Z,77.49
2022-10-08T20:41:42.062Z,78.02
2022-10-08T20:44:43.689Z,77.92
2022-10-08T20:47:45.401Z,78.38
2022-10-08T20:50:47.029Z,78.67
2022-10-08T20:53:53.029Z,78.23
2022-10-08T20:56:54.671Z,78.38
2022-10-08T20:59:57.137Z,78.87
2022-10-08T21:02:58.892Z,78.79
2022-10-08T21:06:00.668Z,78.76
2022-10-08T21:09:03.585Z,78.32
2022-10-08T21:12:05.627Z,78.28
2022-10-08T21:15:08.660Z,78.40
2022-10-08T21:18:10.380Z,78.75
2022-10-08T21:21:13.155Z,78.90
2022-10-08T21:24:14.817Z,78.41
2022-10-08T21:27:16.464Z,78.53
2022-10-08T21:30:18.238Z,78.67
2022-10-08T21:33:19.937Z,78.67
2022-10-08T21:36:25.874Z,78.87
2022-10-08T21:39:27.501Z,79.12
2022-10-08T21:42:33.098Z,79.27
2022-10-08T21:45:34.798Z,78.97
2022-10-08T21:48:36.819Z,78.87
2022-10-08T21:51:38.502Z,79.39
2022-10-08T21:54:40.240Z,79.34
2022-10-08T21:57:41.852Z,79.59
2022-10-08T22:00:43.690Z,79.51
2022-10-08T22:03:45.499Z,79.21
2022-10-08T22:06:48.796Z,79.28
2022-10-08T22:09:50.584Z,79.31
2022-10-08T22:12:52.193Z,79.15
2022-10-08T22:15:54.811Z,79.17
2022-10-08T22:18:56.835Z,79.14
2022-10-08T22:21:58.497Z,79.40
2022-10-08T22:25:00.118Z,79.86
2022-10-08T22:28:01.824Z,79.65
2022-10-08T22:31:04.670Z,79.56
2022-10-08T22:34:06.512Z,79.60
2022-10-08T22:37:08.162Z,79.58
2022-10-08T22:40:09.948Z,79.32
2022-10-08T22:43:11.609Z,79.52
2022-10-08T22:46:16.203Z,79.87
2022-10-08T22:49:17.902Z,79.43
2022-10-08T22:52:19.579Z,79.65
2022-10-08T22:55:21.325Z,79.75
2022-10-08T22:58:23.038Z,79.74
2022-10-08T23:01:25.432Z,79.78
2022-10-08T23:04:27.103Z,79.93
2022-10-08T23:07:28.765Z,80.11
2022-10-08T23:10:30.462Z,80.30
2022-10-08T23:13:32.736Z,80.29
2022-10-08T23:16:34.692Z,80.12
2022-10-08T23:19:36.478Z,80.29
2022-10-08T23:22:38.125Z,80.26
2022-10-08T23:25:39.807Z,80.63
2022-10-08T23:28:41.556Z,80.58
2022-10-08T23:31:43.364Z,80.79
2022-10-08T23:34:45.056Z,80.62
2022-10-08T23:37:48.598Z,80.52
2022-10-08T23:40:50.514Z,80.70
2022-10-08T23:43:52.665Z,80.43
2022-10-08T23:46:54.324Z,80.67
2022-10-08T23:49:56.150Z,80.63
2022-10-08T23:52:57.879Z,80.67
2022-10-08T23:55:59.580Z,80.74
2022-10-08T23:59:01.397Z,80.87
